CheckWX is a tool to help pilots better visualize weather data.  It is not intended as a substitute for an official pre-flight weather briefing.

04:26:07 UTC

KCMA METAR
Camarillo Airport
Camarillo, California, USA
Current

31 mins ago

KCMA 270355Z AUTO 24004KT 10SM CLR 17/13 A2996 RMK AO2 SLP154 T01720128
Observed
Jun-27 @ 03:55 UTC
Wind
  • 240° at 4 KTS
Visibility
10 SM
Flight Rules
VFR
Cloud Levels
  • Clear skies
Temperature
17°C / 63°F
Dewpoint
13°C / 55°F
Humidity
77%
Altimeter
29.96" Hg
Pressure
1014.52 hPa
Previous

2 hours ago

KCMA 270255Z 25005KT 10SM CLR 18/13 A2996 RMK AO2 SLP152 T01780133 53001
Observed
Jun-27 @ 02:55 UTC
Wind
  • 250° at 5 KTS
Visibility
10 SM
Flight Rules
VFR
Cloud Levels
  • Clear skies
Temperature
18°C / 64°F
Dewpoint
13°C / 55°F
Humidity
73%
Altimeter
29.96" Hg
Pressure
1014.52 hPa
Previous

3 hours ago

KCMA 270155Z 26011KT 10SM CLR 19/13 A2995 RMK AO2 SLP151 T01890133
Observed
Jun-27 @ 01:55 UTC
Wind
  • 260° at 11 KTS
Visibility
10 SM
Flight Rules
VFR
Cloud Levels
  • Clear skies
Temperature
19°C / 66°F
Dewpoint
13°C / 55°F
Humidity
68%
Altimeter
29.95" Hg
Pressure
1014.22 hPa